KBRY

Samuels Field Airport

Bardstown, Kentucky, USA
METAR KBRY 141155Z AUTO 05004KT 10SM SCT065 07/02 A3006 RMK AO1
Observed Flight Rules
Dec-14 @ 11:55 UTC (25 minutes ago) Visual Flight Rules
Wind Visibility Clouds
50° at 4 knots 10 miles
  • Scattered at 6,500' AGL
Temperatures Readings
Current 7°C / 45°F
Dewpoint 2°C / 36°F
Humidity 71%
Altimeter 30.06" Hg
Pressure 1018 hPa
Elevation 204
METAR KBRY 141155Z AUTO 05004KT 10SM SCT065 07/02 A3006 RMK AO1
Observed Flight Rules
Dec-14 @ 11:55 UTC
(25 minutes ago)
VFR
Wind Visibility
50° at 4 knots 10 miles
Clouds
  • Scattered at 6,500' AGL
Temperature Dewpoint
7°C / 45°F 2°C / 36°F
Humidity Altimeter Pressure
71% 30.06" Hg 1018 hPa